sensor_id;sensor_type;location;lat;lon;timestamp;temperature;humidity
25360;DHT22;13311;51.386;0.016;2023-03-11T00:03:01;3.80;98.00
25360;DHT22;13311;51.386;0.016;2023-03-11T00:08:05;3.90;98.00
25360;DHT22;13311;51.386;0.016;2023-03-11T00:13:09;3.80;97.80
25360;DHT22;13311;51.386;0.016;2023-03-11T00:18:12;3.90;97.70
25360;DHT22;13311;51.386;0.016;2023-03-11T00:23:14;3.80;97.60
25360;DHT22;13311;51.386;0.016;2023-03-11T00:28:15;3.80;97.50
25360;DHT22;13311;51.386;0.016;2023-03-11T00:33:16;3.90;97.50
25360;DHT22;13311;51.386;0.016;2023-03-11T00:38:17;3.80;97.40
25360;DHT22;13311;51.386;0.016;2023-03-11T00:43:18;3.80;97.50
25360;DHT22;13311;51.386;0.016;2023-03-11T00:48:19;3.70;97.80
25360;DHT22;13311;51.386;0.016;2023-03-11T00:53:20;3.70;97.50
25360;DHT22;13311;51.386;0.016;2023-03-11T00:58:21;3.60;97.40
25360;DHT22;13311;51.386;0.016;2023-03-11T01:03:26;3.60;97.40
25360;DHT22;13311;51.386;0.016;2023-03-11T01:08:27;3.50;97.60
25360;DHT22;13311;51.386;0.016;2023-03-11T01:13:29;3.40;97.70
25360;DHT22;13311;51.386;0.016;2023-03-11T01:18:30;3.40;97.80
25360;DHT22;13311;51.386;0.016;2023-03-11T01:23:30;3.30;97.60
25360;DHT22;13311;51.386;0.016;2023-03-11T01:28:31;3.20;97.70
25360;DHT22;13311;51.386;0.016;2023-03-11T01:33:32;3.20;97.90
25360;DHT22;13311;51.386;0.016;2023-03-11T01:38:33;3.20;97.90
25360;DHT22;13311;51.386;0.016;2023-03-11T01:43:45;3.20;98.00
25360;DHT22;13311;51.386;0.016;2023-03-11T01:48:55;3.10;98.20
25360;DHT22;13311;51.386;0.016;2023-03-11T01:54:00;3.10;98.00
25360;DHT22;13311;51.386;0.016;2023-03-11T01:59:05;3.00;97.80
25360;DHT22;13311;51.386;0.016;2023-03-11T02:04:08;2.90;97.80
25360;DHT22;13311;51.386;0.016;2023-03-11T02:09:13;2.90;98.10
25360;DHT22;13311;51.386;0.016;2023-03-11T02:14:18;2.90;98.20
25360;DHT22;13311;51.386;0.016;2023-03-11T02:30:43;2.90;98.10
25360;DHT22;13311;51.386;0.016;2023-03-11T02:35:44;2.80;98.10
25360;DHT22;13311;51.386;0.016;2023-03-11T02:40:54;2.80;98.00
25360;DHT22;13311;51.386;0.016;2023-03-11T02:45:56;2.70;97.90
25360;DHT22;13311;51.386;0.016;2023-03-11T02:50:58;2.70;98.00
25360;DHT22;13311;51.386;0.016;2023-03-11T02:55:59;2.70;98.20
25360;DHT22;13311;51.386;0.016;2023-03-11T03:01:00;2.60;98.00
25360;DHT22;13311;51.386;0.016;2023-03-11T03:06:00;2.50;98.20
25360;DHT22;13311;51.386;0.016;2023-03-11T03:11:01;2.50;98.20
25360;DHT22;13311;51.386;0.016;2023-03-11T03:16:02;2.50;98.10
25360;DHT22;13311;51.386;0.016;2023-03-11T03:21:04;2.50;98.10
25360;DHT22;13311;51.386;0.016;2023-03-11T03:26:05;2.40;98.30
25360;DHT22;13311;51.386;0.016;2023-03-11T03:31:07;2.40;98.30
25360;DHT22;13311;51.386;0.016;2023-03-11T03:36:11;2.40;98.30
25360;DHT22;13311;51.386;0.016;2023-03-11T03:41:13;2.30;98.10
25360;DHT22;13311;51.386;0.016;2023-03-11T03:46:17;2.30;98.10
25360;DHT22;13311;51.386;0.016;2023-03-11T03:51:18;2.20;98.30
25360;DHT22;13311;51.386;0.016;2023-03-11T03:56:18;2.20;98.10
25360;DHT22;13311;51.386;0.016;2023-03-11T04:01:19;2.10;98.00
25360;DHT22;13311;51.386;0.016;2023-03-11T04:06:23;2.00;98.20
25360;DHT22;13311;51.386;0.016;2023-03-11T04:11:24;2.00;98.30
25360;DHT22;13311;51.386;0.016;2023-03-11T04:16:25;2.10;98.20
25360;DHT22;13311;51.386;0.016;2023-03-11T04:21:26;2.10;98.10
25360;DHT22;13311;51.386;0.016;2023-03-11T04:26:27;2.00;98.00
25360;DHT22;13311;51.386;0.016;2023-03-11T04:31:27;2.00;97.90
25360;DHT22;13311;51.386;0.016;2023-03-11T04:36:28;2.00;97.90
25360;DHT22;13311;51.386;0.016;2023-03-11T04:41:29;2.00;98.00
25360;DHT22;13311;51.386;0.016;2023-03-11T04:46:29;1.90;98.00
25360;DHT22;13311;51.386;0.016;2023-03-11T04:51:30;1.90;98.10
25360;DHT22;13311;51.386;0.016;2023-03-11T04:56:31;2.00;98.10
25360;DHT22;13311;51.386;0.016;2023-03-11T05:01:32;2.10;98.40
25360;DHT22;13311;51.386;0.016;2023-03-11T05:06:32;2.10;98.40
25360;DHT22;13311;51.386;0.016;2023-03-11T05:11:33;2.10;98.50
25360;DHT22;13311;51.386;0.016;2023-03-11T05:16:34;2.20;98.50
25360;DHT22;13311;51.386;0.016;2023-03-11T05:21:34;2.20;98.40
25360;DHT22;13311;51.386;0.016;2023-03-11T05:26:35;2.30;98.50
25360;DHT22;13311;51.386;0.016;2023-03-11T05:31:36;2.40;98.50
25360;DHT22;13311;51.386;0.016;2023-03-11T05:36:36;2.40;98.30
25360;DHT22;13311;51.386;0.016;2023-03-11T05:41:37;2.40;98.50
25360;DHT22;13311;51.386;0.016;2023-03-11T05:46:38;2.40;98.60
25360;DHT22;13311;51.386;0.016;2023-03-11T05:51:38;2.50;98.80
25360;DHT22;13311;51.386;0.016;2023-03-11T05:56:43;2.50;98.70
25360;DHT22;13311;51.386;0.016;2023-03-11T06:01:44;2.50;98.70
25360;DHT22;13311;51.386;0.016;2023-03-11T06:06:45;2.60;98.60
25360;DHT22;13311;51.386;0.016;2023-03-11T06:11:46;2.60;98.50
25360;DHT22;13311;51.386;0.016;2023-03-11T06:16:46;2.50;98.40
25360;DHT22;13311;51.386;0.016;2023-03-11T06:21:47;2.40;98.80
25360;DHT22;13311;51.386;0.016;2023-03-11T06:26:51;2.50;98.90
25360;DHT22;13311;51.386;0.016;2023-03-11T06:31:52;2.50;99.00
25360;DHT22;13311;51.386;0.016;2023-03-11T06:36:52;2.60;99.00
25360;DHT22;13311;51.386;0.016;2023-03-11T06:41:54;2.50;99.00
25360;DHT22;13311;51.386;0.016;2023-03-11T06:46:55;2.60;99.30
25360;DHT22;13311;51.386;0.016;2023-03-11T06:51:55;2.70;99.30
25360;DHT22;13311;51.386;0.016;2023-03-11T06:56:56;2.80;99.20
25360;DHT22;13311;51.386;0.016;2023-03-11T07:01:57;2.80;99.10
25360;DHT22;13311;51.386;0.016;2023-03-11T07:06:58;2.80;99.30
25360;DHT22;13311;51.386;0.016;2023-03-11T07:11:59;2.80;99.40
25360;DHT22;13311;51.386;0.016;2023-03-11T07:17:00;2.80;99.40
25360;DHT22;13311;51.386;0.016;2023-03-11T07:22:01;2.90;99.50
25360;DHT22;13311;51.386;0.016;2023-03-11T07:27:02;3.00;99.80
25360;DHT22;13311;51.386;0.016;2023-03-11T07:32:02;3.10;99.70
25360;DHT22;13311;51.386;0.016;2023-03-11T07:37:03;3.20;99.70
25360;DHT22;13311;51.386;0.016;2023-03-11T07:42:04;3.20;99.60
25360;DHT22;13311;51.386;0.016;2023-03-11T07:47:05;3.30;99.70
25360;DHT22;13311;51.386;0.016;2023-03-11T07:52:06;3.50;99.80
25360;DHT22;13311;51.386;0.016;2023-03-11T08:03:00;3.80;99.40
25360;DHT22;13311;51.386;0.016;2023-03-11T08:08:01;3.90;99.20
25360;DHT22;13311;51.386;0.016;2023-03-11T08:13:03;4.00;99.00
25360;DHT22;13311;51.386;0.016;2023-03-11T08:18:03;4.20;98.90
25360;DHT22;13311;51.386;0.016;2023-03-11T08:23:04;4.30;98.90
25360;DHT22;13311;51.386;0.016;2023-03-11T08:28:06;4.50;99.20
25360;DHT22;13311;51.386;0.016;2023-03-11T08:33:07;4.80;99.30
25360;DHT22;13311;51.386;0.016;2023-03-11T08:38:08;5.00;98.90
25360;DHT22;13311;51.386;0.016;2023-03-11T08:43:12;5.20;98.50
25360;DHT22;13311;51.386;0.016;2023-03-11T08:48:13;5.40;97.70
25360;DHT22;13311;51.386;0.016;2023-03-11T08:53:14;5.50;97.60
25360;DHT22;13311;51.386;0.016;2023-03-11T08:58:14;5.70;97.30
25360;DHT22;13311;51.386;0.016;2023-03-11T09:03:15;5.90;96.70
25360;DHT22;13311;51.386;0.016;2023-03-11T09:08:15;6.10;96.80
25360;DHT22;13311;51.386;0.016;2023-03-11T09:13:16;6.40;96.50
25360;DHT22;13311;51.386;0.016;2023-03-11T09:18:17;6.50;95.20
25360;DHT22;13311;51.386;0.016;2023-03-11T09:23:18;6.70;95.10
25360;DHT22;13311;51.386;0.016;2023-03-11T09:28:19;7.00;94.80
25360;DHT22;13311;51.386;0.016;2023-03-11T09:33:20;7.20;94.20
25360;DHT22;13311;51.386;0.016;2023-03-11T09:38:20;7.60;92.50
25360;DHT22;13311;51.386;0.016;2023-03-11T09:48:30;8.00;90.30
25360;DHT22;13311;51.386;0.016;2023-03-11T09:53:43;8.10;90.10
25360;DHT22;13311;51.386;0.016;2023-03-11T10:09:37;8.30;89.40
25360;DHT22;13311;51.386;0.016;2023-03-11T10:26:43;9.20;90.20
25360;DHT22;13311;51.386;0.016;2023-03-11T10:37:37;9.90;90.20
25360;DHT22;13311;51.386;0.016;2023-03-11T10:42:43;10.00;89.50
25360;DHT22;13311;51.386;0.016;2023-03-11T10:47:45;9.90;88.50
25360;DHT22;13311;51.386;0.016;2023-03-11T10:53:06;9.70;87.10
25360;DHT22;13311;51.386;0.016;2023-03-11T10:58:16;9.70;89.00
25360;DHT22;13311;51.386;0.016;2023-03-11T11:03:28;9.80;88.10
25360;DHT22;13311;51.386;0.016;2023-03-11T11:08:30;10.00;88.20
25360;DHT22;13311;51.386;0.016;2023-03-11T11:13:33;10.30;88.60
25360;DHT22;13311;51.386;0.016;2023-03-11T11:24:22;11.00;85.90
25360;DHT22;13311;51.386;0.016;2023-03-11T11:29:24;11.30;85.50
25360;DHT22;13311;51.386;0.016;2023-03-11T11:34:33;11.60;86.20
25360;DHT22;13311;51.386;0.016;2023-03-11T11:39:56;11.60;81.00
25360;DHT22;13311;51.386;0.016;2023-03-11T11:50:44;11.40;82.90
25360;DHT22;13311;51.386;0.016;2023-03-11T11:55:49;11.20;81.20
25360;DHT22;13311;51.386;0.016;2023-03-11T12:11:42;12.10;79.70
25360;DHT22;13311;51.386;0.016;2023-03-11T12:16:57;12.00;72.30
25360;DHT22;13311;51.386;0.016;2023-03-11T12:22:32;11.90;74.90
25360;DHT22;13311;51.386;0.016;2023-03-11T12:27:48;12.10;77.10
25360;DHT22;13311;51.386;0.016;2023-03-11T12:32:54;12.00;74.20
25360;DHT22;13311;51.386;0.016;2023-03-11T12:37:58;12.00;76.30
25360;DHT22;13311;51.386;0.016;2023-03-11T12:48:33;11.80;75.00
25360;DHT22;13311;51.386;0.016;2023-03-11T12:53:46;12.10;75.00
25360;DHT22;13311;51.386;0.016;2023-03-11T13:09:40;12.10;71.70
25360;DHT22;13311;51.386;0.016;2023-03-11T13:14:40;11.90;70.40
25360;DHT22;13311;51.386;0.016;2023-03-11T13:19:52;11.80;71.00
25360;DHT22;13311;51.386;0.016;2023-03-11T13:24:56;11.90;73.50
25360;DHT22;13311;51.386;0.016;2023-03-11T13:30:24;12.10;73.30
25360;DHT22;13311;51.386;0.016;2023-03-11T13:41:02;11.70;72.30
25360;DHT22;13311;51.386;0.016;2023-03-11T13:46:27;11.40;72.40
25360;DHT22;13311;51.386;0.016;2023-03-11T13:51:39;11.10;74.70
25360;DHT22;13311;51.386;0.016;2023-03-11T13:56:45;11.10;75.20
25360;DHT22;13311;51.386;0.016;2023-03-11T14:01:50;10.90;74.10
25360;DHT22;13311;51.386;0.016;2023-03-11T14:06:54;11.00;74.00
25360;DHT22;13311;51.386;0.016;2023-03-11T14:12:03;10.90;73.00
25360;DHT22;13311;51.386;0.016;2023-03-11T14:17:13;10.70;72.00
25360;DHT22;13311;51.386;0.016;2023-03-11T14:22:16;10.70;74.80
25360;DHT22;13311;51.386;0.016;2023-03-11T14:27:16;10.90;73.40
25360;DHT22;13311;51.386;0.016;2023-03-11T14:32:27;11.00;74.30
25360;DHT22;13311;51.386;0.016;2023-03-11T14:37:33;11.00;74.00
25360;DHT22;13311;51.386;0.016;2023-03-11T14:42:38;10.90;73.60
25360;DHT22;13311;51.386;0.016;2023-03-11T14:59:01;10.60;73.80
25360;DHT22;13311;51.386;0.016;2023-03-11T15:04:37;10.50;74.40
25360;DHT22;13311;51.386;0.016;2023-03-11T15:09:43;10.40;75.60
25360;DHT22;13311;51.386;0.016;2023-03-11T15:14:50;10.50;75.80
25360;DHT22;13311;51.386;0.016;2023-03-11T15:19:51;10.40;75.60
25360;DHT22;13311;51.386;0.016;2023-03-11T15:25:00;10.30;75.80
25360;DHT22;13311;51.386;0.016;2023-03-11T15:30:19;10.30;75.90
25360;DHT22;13311;51.386;0.016;2023-03-11T15:35:29;10.20;76.10
25360;DHT22;13311;51.386;0.016;2023-03-11T15:40:30;10.20;76.10
25360;DHT22;13311;51.386;0.016;2023-03-11T15:45:35;10.10;75.50
25360;DHT22;13311;51.386;0.016;2023-03-11T15:50:45;10.10;76.30
25360;DHT22;13311;51.386;0.016;2023-03-11T15:55:51;9.90;76.40
25360;DHT22;13311;51.386;0.016;2023-03-11T16:00:55;9.80;75.70
25360;DHT22;13311;51.386;0.016;2023-03-11T16:05:56;9.70;76.30
25360;DHT22;13311;51.386;0.016;2023-03-11T16:10:57;9.80;76.70
25360;DHT22;13311;51.386;0.016;2023-03-11T16:15:58;9.70;76.20
25360;DHT22;13311;51.386;0.016;2023-03-11T16:20:58;9.70;77.40
25360;DHT22;13311;51.386;0.016;2023-03-11T16:26:04;9.70;77.80
25360;DHT22;13311;51.386;0.016;2023-03-11T16:31:05;9.60;78.20
25360;DHT22;13311;51.386;0.016;2023-03-11T16:36:09;9.50;78.40
25360;DHT22;13311;51.386;0.016;2023-03-11T16:41:10;9.40;79.50
25360;DHT22;13311;51.386;0.016;2023-03-11T16:46:11;9.40;79.60
25360;DHT22;13311;51.386;0.016;2023-03-11T16:51:12;9.40;80.40
25360;DHT22;13311;51.386;0.016;2023-03-11T16:56:12;9.30;81.30
25360;DHT22;13311;51.386;0.016;2023-03-11T17:01:13;9.20;82.40
25360;DHT22;13311;51.386;0.016;2023-03-11T17:06:16;9.20;81.20
25360;DHT22;13311;51.386;0.016;2023-03-11T17:11:19;9.20;81.90
25360;DHT22;13311;51.386;0.016;2023-03-11T17:16:21;9.20;81.90
25360;DHT22;13311;51.386;0.016;2023-03-11T17:21:22;9.20;83.50
25360;DHT22;13311;51.386;0.016;2023-03-11T17:26:24;9.20;86.10
25360;DHT22;13311;51.386;0.016;2023-03-11T17:31:27;9.20;87.10
25360;DHT22;13311;51.386;0.016;2023-03-11T17:36:27;9.00;89.70
25360;DHT22;13311;51.386;0.016;2023-03-11T17:41:28;8.80;92.30
25360;DHT22;13311;51.386;0.016;2023-03-11T17:46:29;8.60;93.50
25360;DHT22;13311;51.386;0.016;2023-03-11T17:51:30;8.40;94.10
25360;DHT22;13311;51.386;0.016;2023-03-11T17:56:32;8.20;94.30
25360;DHT22;13311;51.386;0.016;2023-03-11T18:01:33;8.10;95.70
25360;DHT22;13311;51.386;0.016;2023-03-11T18:06:33;8.00;95.00
25360;DHT22;13311;51.386;0.016;2023-03-11T18:11:34;7.90;95.70
25360;DHT22;13311;51.386;0.016;2023-03-11T18:16:35;7.90;96.40
25360;DHT22;13311;51.386;0.016;2023-03-11T18:21:36;7.90;97.10
25360;DHT22;13311;51.386;0.016;2023-03-11T18:26:36;8.00;97.00
25360;DHT22;13311;51.386;0.016;2023-03-11T18:31:38;8.00;97.10
25360;DHT22;13311;51.386;0.016;2023-03-11T18:36:39;7.90;97.20
25360;DHT22;13311;51.386;0.016;2023-03-11T18:41:41;7.80;97.50
25360;DHT22;13311;51.386;0.016;2023-03-11T18:46:42;7.80;98.00
25360;DHT22;13311;51.386;0.016;2023-03-11T18:51:43;7.70;98.20
25360;DHT22;13311;51.386;0.016;2023-03-11T18:56:44;7.70;98.20
25360;DHT22;13311;51.386;0.016;2023-03-11T19:01:45;7.60;98.40
25360;DHT22;13311;51.386;0.016;2023-03-11T19:06:49;7.40;98.80
25360;DHT22;13311;51.386;0.016;2023-03-11T19:11:49;7.50;99.10
25360;DHT22;13311;51.386;0.016;2023-03-11T19:16:50;7.40;99.00
25360;DHT22;13311;51.386;0.016;2023-03-11T19:21:51;7.30;99.60
25360;DHT22;13311;51.386;0.016;2023-03-11T19:26:51;7.20;99.90
25360;DHT22;13311;51.386;0.016;2023-03-11T19:31:52;7.20;99.90
25360;DHT22;13311;51.386;0.016;2023-03-11T19:36:53;7.30;99.90
25360;DHT22;13311;51.386;0.016;2023-03-11T19:41:54;7.30;99.90
25360;DHT22;13311;51.386;0.016;2023-03-11T19:46:54;7.40;99.90
25360;DHT22;13311;51.386;0.016;2023-03-11T19:51:55;7.30;99.90
25360;DHT22;13311;51.386;0.016;2023-03-11T19:56:56;7.20;99.90
25360;DHT22;13311;51.386;0.016;2023-03-11T20:01:56;7.00;99.90
25360;DHT22;13311;51.386;0.016;2023-03-11T20:06:58;7.00;99.90
25360;DHT22;13311;51.386;0.016;2023-03-11T20:11:59;6.90;99.90
25360;DHT22;13311;51.386;0.016;2023-03-11T20:16:59;6.90;99.90
25360;DHT22;13311;51.386;0.016;2023-03-11T20:22:00;6.80;99.90
25360;DHT22;13311;51.386;0.016;2023-03-11T20:27:01;6.70;99.90
25360;DHT22;13311;51.386;0.016;2023-03-11T20:32:01;6.90;99.90
25360;DHT22;13311;51.386;0.016;2023-03-11T20:37:03;6.90;99.90
25360;DHT22;13311;51.386;0.016;2023-03-11T20:42:04;7.00;99.90
25360;DHT22;13311;51.386;0.016;2023-03-11T20:47:05;7.10;99.90
25360;DHT22;13311;51.386;0.016;2023-03-11T20:52:05;7.10;99.90
25360;DHT22;13311;51.386;0.016;2023-03-11T20:57:06;7.20;99.90
25360;DHT22;13311;51.386;0.016;2023-03-11T21:02:10;7.40;99.90
25360;DHT22;13311;51.386;0.016;2023-03-11T21:07:11;7.50;99.90
25360;DHT22;13311;51.386;0.016;2023-03-11T21:12:11;7.50;99.90
25360;DHT22;13311;51.386;0.016;2023-03-11T21:17:12;7.50;99.90
25360;DHT22;13311;51.386;0.016;2023-03-11T21:22:13;7.50;99.90
25360;DHT22;13311;51.386;0.016;2023-03-11T21:27:13;7.50;99.90
25360;DHT22;13311;51.386;0.016;2023-03-11T21:32:14;7.60;99.90
25360;DHT22;13311;51.386;0.016;2023-03-11T21:37:15;7.70;99.90
25360;DHT22;13311;51.386;0.016;2023-03-11T21:42:16;7.80;99.90
25360;DHT22;13311;51.386;0.016;2023-03-11T21:47:18;7.80;99.90
25360;DHT22;13311;51.386;0.016;2023-03-11T21:52:18;7.90;99.90
25360;DHT22;13311;51.386;0.016;2023-03-11T21:57:19;7.90;99.90
25360;DHT22;13311;51.386;0.016;2023-03-11T22:02:20;7.90;99.90
25360;DHT22;13311;51.386;0.016;2023-03-11T22:07:21;8.00;99.90
25360;DHT22;13311;51.386;0.016;2023-03-11T22:12:21;8.00;99.90
25360;DHT22;13311;51.386;0.016;2023-03-11T22:17:22;8.00;99.90
25360;DHT22;13311;51.386;0.016;2023-03-11T22:22:23;8.10;99.90
25360;DHT22;13311;51.386;0.016;2023-03-11T22:27:23;8.10;99.90
25360;DHT22;13311;51.386;0.016;2023-03-11T22:32:24;8.30;99.90
25360;DHT22;13311;51.386;0.016;2023-03-11T22:37:25;8.40;99.90
25360;DHT22;13311;51.386;0.016;2023-03-11T22:42:26;8.50;99.90
25360;DHT22;13311;51.386;0.016;2023-03-11T22:47:27;8.30;99.90
25360;DHT22;13311;51.386;0.016;2023-03-11T22:52:28;8.20;99.90
25360;DHT22;13311;51.386;0.016;2023-03-11T22:57:28;8.20;99.90
25360;DHT22;13311;51.386;0.016;2023-03-11T23:02:30;8.10;99.90
25360;DHT22;13311;51.386;0.016;2023-03-11T23:07:30;8.10;99.90
25360;DHT22;13311;51.386;0.016;2023-03-11T23:12:31;8.30;99.90
25360;DHT22;13311;51.386;0.016;2023-03-11T23:17:32;8.30;99.90
25360;DHT22;13311;51.386;0.016;2023-03-11T23:22:37;8.40;99.90
25360;DHT22;13311;51.386;0.016;2023-03-11T23:27:39;8.40;99.90
25360;DHT22;13311;51.386;0.016;2023-03-11T23:32:42;8.50;99.90
25360;DHT22;13311;51.386;0.016;2023-03-11T23:37:47;8.50;99.90
25360;DHT22;13311;51.386;0.016;2023-03-11T23:42:48;8.50;99.90
25360;DHT22;13311;51.386;0.016;2023-03-11T23:47:50;8.60;99.90
25360;DHT22;13311;51.386;0.016;2023-03-11T23:52:50;8.60;99.90
25360;DHT22;13311;51.386;0.016;2023-03-11T23:57:51;8.70;99.90
